Etusivu
METAR-TAF:

METAR-TAF

Lentoasemat :

Nueces County Airport

Robstown, Texas, Yhdysvallat

Leveyspiiri: 27-46-42N, Pituuspiiri: 097-41-25W, korkeus merenpinnasta: 24 m

Tämänhetkinen sää

Tämä raportti tehtiin 47 minuuttia sitten, kello 23.55 UTC
Tuuli 17 kn kaakosta puuskistuen 24 kn:hen
Lämpötila 24°C
Kosteus 78%
Ilmanpaine 1013 hPa
Näkyvyys: 16.1 km
Pilvistä 6500 ft:n korkeudessa

METAR: KRBO 072355Z AUTO 14017G24KT 10SM OVC065 24/20 A2990 RMK AO2 T02370201 10255 20237

Aika: 18:42 (00:42 UTC)


TAF: puuttuu

Säähavainnot ja -ennusteet yli 4000 lentoasemalta (METAR- ja TAF-raportit).

Käytössä olevat sääasemat on merkitty karttaan keltaisilla ja punaisilla pisteillä.

Aseta hiiri pisteen päälle nähdäksesi sääaseman nimen.

Klikkaa sitten nähdäksesi säähavainnot ja -ennusteet.

Kartan vaihtaminen: klikkaa mustalla rastilla varustettuja vihreitä pisteitä, niin voit zoomata sisään; viivalla varustettua vihreää pistettä, niin voit zoomata ulos tai vihreitä nuolia, niin pääset viereisille kartoille.


METAR-TAF: